createdAt,value
2019-03-26T00:01:01.650Z,99.90
2019-03-26T00:03:32.967Z,99.90
2019-03-26T00:06:04.313Z,99.90
2019-03-26T00:08:35.579Z,99.90
2019-03-26T00:11:06.786Z,99.90
2019-03-26T00:13:38.052Z,99.90
2019-03-26T00:16:09.249Z,99.90
2019-03-26T00:18:40.515Z,99.90
2019-03-26T00:21:11.840Z,99.90
2019-03-26T00:23:43.066Z,99.90
2019-03-26T00:26:14.274Z,99.90
2019-03-26T00:28:45.532Z,99.90
2019-03-26T00:31:16.761Z,99.90
2019-03-26T00:33:48.043Z,99.90
2019-03-26T00:36:19.329Z,99.90
2019-03-26T00:38:50.770Z,99.90
2019-03-26T00:41:22.149Z,99.90
2019-03-26T00:43:53.340Z,99.90
2019-03-26T00:46:24.596Z,99.90
2019-03-26T00:48:55.871Z,99.90
2019-03-26T00:51:27.188Z,99.90
2019-03-26T00:53:58.555Z,99.90
2019-03-26T00:56:29.831Z,99.90
2019-03-26T00:59:01.207Z,99.90
2019-03-26T01:01:32.416Z,99.90
2019-03-26T01:04:03.750Z,99.90
2019-03-26T01:06:35.076Z,99.90
2019-03-26T01:09:07.899Z,99.90
2019-03-26T01:11:39.140Z,99.90
2019-03-26T01:14:10.467Z,99.90
2019-03-26T01:16:41.802Z,99.90
2019-03-26T01:19:13.189Z,99.90
2019-03-26T01:21:44.425Z,99.90
2019-03-26T01:24:15.781Z,99.90
2019-03-26T01:26:47.059Z,99.90
2019-03-26T01:29:18.326Z,99.90
2019-03-26T01:31:49.570Z,99.90
2019-03-26T01:34:20.902Z,99.90
2019-03-26T01:36:52.114Z,99.90
2019-03-26T01:39:23.359Z,99.90
2019-03-26T01:41:54.518Z,99.90
2019-03-26T01:44:25.733Z,99.90
2019-03-26T01:46:56.990Z,99.90
2019-03-26T01:49:28.196Z,99.90
2019-03-26T01:51:59.577Z,99.90
2019-03-26T01:54:30.859Z,99.90
2019-03-26T01:57:02.227Z,99.90
2019-03-26T01:59:33.512Z,99.90
2019-03-26T02:02:04.827Z,99.90
2019-03-26T02:04:36.064Z,99.90
2019-03-26T02:07:07.322Z,99.90
2019-03-26T02:09:38.667Z,99.90
2019-03-26T02:12:10.054Z,99.90
2019-03-26T02:14:41.270Z,99.90
2019-03-26T02:17:12.557Z,99.90
2019-03-26T02:19:43.813Z,99.90
2019-03-26T02:22:15.029Z,99.90
2019-03-26T02:24:46.196Z,99.90
2019-03-26T02:27:17.451Z,99.90
2019-03-26T02:29:48.678Z,99.90
2019-03-26T02:32:20.067Z,99.90
2019-03-26T02:34:51.291Z,99.90
2019-03-26T02:37:22.538Z,99.90
2019-03-26T02:39:53.994Z,99.90
2019-03-26T02:42:25.401Z,99.90
2019-03-26T02:44:56.608Z,99.90
2019-03-26T02:47:27.867Z,99.90
2019-03-26T02:49:59.110Z,99.90
2019-03-26T02:52:30.456Z,99.90
2019-03-26T02:55:01.783Z,99.90
2019-03-26T02:57:33.093Z,99.90
2019-03-26T03:00:04.625Z,99.90
2019-03-26T03:02:35.976Z,99.90
2019-03-26T03:05:07.339Z,99.90
2019-03-26T03:07:38.685Z,99.90
2019-03-26T03:10:10.021Z,99.90
2019-03-26T03:12:41.269Z,99.90
2019-03-26T03:15:12.555Z,99.90
2019-03-26T03:17:43.881Z,99.90
2019-03-26T03:20:15.161Z,99.90
2019-03-26T03:22:47.314Z,99.90
2019-03-26T03:25:18.579Z,99.90
2019-03-26T03:27:49.867Z,99.90
2019-03-26T03:30:21.652Z,99.90
2019-03-26T03:32:52.771Z,99.90
2019-03-26T03:35:24.096Z,99.90
2019-03-26T03:37:55.393Z,99.90
2019-03-26T03:40:26.594Z,99.90
2019-03-26T03:42:57.819Z,99.90
2019-03-26T03:45:30.372Z,99.90
2019-03-26T03:48:02.222Z,99.90
2019-03-26T03:50:34.766Z,99.90
2019-03-26T03:53:07.245Z,99.90
2019-03-26T03:55:38.778Z,99.90
2019-03-26T03:58:09.970Z,99.90
2019-03-26T04:00:41.683Z,99.90
2019-03-26T04:03:12.898Z,99.90
2019-03-26T04:05:44.212Z,99.90
2019-03-26T04:08:15.475Z,99.90
2019-03-26T04:10:46.826Z,99.90
2019-03-26T04:13:18.130Z,99.90
2019-03-26T04:15:49.484Z,99.90
2019-03-26T04:18:20.851Z,99.90
2019-03-26T04:20:52.103Z,99.90
2019-03-26T04:23:23.389Z,99.90
2019-03-26T04:25:54.704Z,99.90
2019-03-26T04:28:25.939Z,99.90
2019-03-26T04:30:57.265Z,99.90
2019-03-26T04:33:28.477Z,99.90
2019-03-26T04:35:59.723Z,99.90
2019-03-26T04:38:30.955Z,99.90
2019-03-26T04:41:02.223Z,99.90
2019-03-26T04:43:33.491Z,99.90
2019-03-26T04:46:04.778Z,99.90
2019-03-26T04:48:36.105Z,99.90
2019-03-26T04:51:07.359Z,99.90
2019-03-26T04:53:38.654Z,99.90
2019-03-26T04:56:09.972Z,99.90
2019-03-26T04:58:43.874Z,99.90
2019-03-26T05:01:14.003Z,99.90
2019-03-26T05:03:45.193Z,99.90
2019-03-26T05:06:16.509Z,99.90
2019-03-26T05:08:47.783Z,99.90
2019-03-26T05:11:20.531Z,99.90
2019-03-26T05:13:51.817Z,99.90
2019-03-26T05:16:23.174Z,99.90
2019-03-26T05:18:54.420Z,99.90
2019-03-26T05:21:25.707Z,99.90
2019-03-26T05:23:56.894Z,99.90
2019-03-26T05:26:28.268Z,99.90
2019-03-26T05:28:59.619Z,99.90
2019-03-26T05:31:30.951Z,99.90
2019-03-26T05:34:02.304Z,99.90
2019-03-26T05:36:33.651Z,99.90
2019-03-26T05:39:06.031Z,99.90
2019-03-26T05:41:37.378Z,99.90
2019-03-26T05:44:08.673Z,99.90
2019-03-26T05:46:40.031Z,99.90
2019-03-26T05:49:11.326Z,99.90
2019-03-26T05:51:42.593Z,99.90
2019-03-26T05:54:13.860Z,99.90
2019-03-26T05:56:48.016Z,99.90
2019-03-26T05:59:19.602Z,99.90
2019-03-26T06:01:50.939Z,99.90
2019-03-26T06:04:22.165Z,99.90
2019-03-26T06:07:04.208Z,99.90
2019-03-26T06:09:26.309Z,99.90
2019-03-26T06:11:57.596Z,99.90
2019-03-26T06:14:28.804Z,99.90
2019-03-26T06:17:00.100Z,99.90
2019-03-26T06:19:31.376Z,99.90
2019-03-26T06:22:02.691Z,99.90
2019-03-26T06:24:33.998Z,99.90
2019-03-26T06:27:05.329Z,99.90
2019-03-26T06:29:36.681Z,99.90
2019-03-26T06:32:08.046Z,99.90
2019-03-26T06:34:39.264Z,99.90
2019-03-26T06:37:17.873Z,99.90
2019-03-26T06:39:43.352Z,99.90
2019-03-26T06:42:14.582Z,99.90
2019-03-26T06:44:45.949Z,99.90
2019-03-26T06:47:17.208Z,99.90
2019-03-26T06:49:48.534Z,99.90
2019-03-26T06:52:19.841Z,99.90
2019-03-26T06:54:51.937Z,99.90
2019-03-26T06:57:34.945Z,99.90
2019-03-26T06:59:56.202Z,99.90
2019-03-26T07:02:27.555Z,99.90
2019-03-26T07:04:58.765Z,99.90
2019-03-26T07:07:31.899Z,99.90
2019-03-26T07:10:02.937Z,99.90
2019-03-26T07:12:34.362Z,99.90
2019-03-26T07:15:06.549Z,99.90
2019-03-26T07:17:37.816Z,99.70
2019-03-26T07:20:09.673Z,99.90
2019-03-26T07:22:41.017Z,99.90
2019-03-26T07:25:12.605Z,99.90
2019-03-26T07:27:43.906Z,99.10
2019-03-26T07:30:22.759Z,95.60
2019-03-26T07:32:53.936Z,94.40
2019-03-26T07:35:25.182Z,94.70
2019-03-26T07:38:15.303Z,93.20
2019-03-26T07:40:46.550Z,93.70
2019-03-26T07:43:17.920Z,93.80
2019-03-26T07:45:50.506Z,92.90
2019-03-26T07:48:21.811Z,92.80
2019-03-26T07:50:53.162Z,91.80
2019-03-26T07:53:24.522Z,89.90
2019-03-26T07:55:55.778Z,91.60
2019-03-26T07:58:27.038Z,90.60
2019-03-26T08:00:58.352Z,90.60
2019-03-26T08:03:29.707Z,89.70
2019-03-26T08:06:00.883Z,88.30
2019-03-26T08:08:32.164Z,88.80
2019-03-26T08:11:06.336Z,86.70
2019-03-26T08:13:37.715Z,88.40
2019-03-26T08:16:10.590Z,88.50
2019-03-26T08:18:41.897Z,88.40
2019-03-26T08:21:13.155Z,89.00
2019-03-26T08:23:44.440Z,89.70
2019-03-26T08:26:15.825Z,89.90
2019-03-26T08:28:47.143Z,90.10
2019-03-26T08:31:18.450Z,87.30
2019-03-26T08:33:49.776Z,86.80
2019-03-26T08:36:21.523Z,89.00
2019-03-26T08:38:52.798Z,89.50
2019-03-26T08:41:24.075Z,91.90
2019-03-26T08:43:55.421Z,88.10
2019-03-26T08:46:26.768Z,89.00
2019-03-26T08:48:57.976Z,89.40
2019-03-26T08:51:29.250Z,88.70
2019-03-26T08:54:00.408Z,88.90
2019-03-26T08:56:31.636Z,87.60
2019-03-26T08:59:02.911Z,86.70
2019-03-26T09:01:34.298Z,89.60
2019-03-26T09:04:05.685Z,86.60
2019-03-26T09:06:36.909Z,85.40
2019-03-26T09:09:08.799Z,88.20
2019-03-26T09:11:40.011Z,88.80
2019-03-26T09:14:11.259Z,87.20
2019-03-26T09:16:42.485Z,85.80
2019-03-26T09:19:13.671Z,87.40
2019-03-26T09:21:44.878Z,87.10
2019-03-26T09:24:16.146Z,86.00
2019-03-26T09:26:47.463Z,84.80
2019-03-26T09:29:18.657Z,84.20
2019-03-26T09:31:49.883Z,83.50
2019-03-26T09:34:21.032Z,83.80
2019-03-26T09:36:52.179Z,83.90
2019-03-26T09:39:23.442Z,83.70
2019-03-26T09:41:54.739Z,83.20
2019-03-26T09:44:25.866Z,83.00
2019-03-26T09:46:57.132Z,83.70
2019-03-26T09:49:28.438Z,84.00
2019-03-26T09:51:59.695Z,85.00
2019-03-26T09:54:30.925Z,83.00
2019-03-26T09:57:21.003Z,84.30
2019-03-26T09:59:52.208Z,82.80
2019-03-26T10:02:23.465Z,79.90
2019-03-26T10:04:54.652Z,78.50
2019-03-26T10:07:25.829Z,78.90
2019-03-26T10:09:56.999Z,79.80
2019-03-26T10:12:28.242Z,79.90
2019-03-26T10:14:59.528Z,81.00
2019-03-26T10:17:30.774Z,81.90
2019-03-26T10:20:01.945Z,83.40
2019-03-26T10:22:33.157Z,85.00
2019-03-26T10:25:04.734Z,85.50
2019-03-26T10:27:35.960Z,85.00
2019-03-26T10:30:08.028Z,84.30
2019-03-26T10:32:39.496Z,82.90
2019-03-26T10:35:10.765Z,80.90
2019-03-26T10:37:42.136Z,82.50
2019-03-26T10:40:19.855Z,80.70
2019-03-26T10:42:51.160Z,81.20
2019-03-26T10:45:22.347Z,79.20
2019-03-26T10:47:53.524Z,78.50
2019-03-26T10:50:24.741Z,78.10
2019-03-26T10:52:55.962Z,77.70
2019-03-26T10:55:27.195Z,76.30
2019-03-26T10:57:58.479Z,76.50
2019-03-26T11:00:29.669Z,74.40
2019-03-26T11:03:00.912Z,72.10
2019-03-26T11:05:32.240Z,70.00
2019-03-26T11:08:03.527Z,67.60
2019-03-26T11:10:34.843Z,65.90
2019-03-26T11:13:06.078Z,64.20
2019-03-26T11:15:37.254Z,62.60
2019-03-26T11:18:08.495Z,64.40
2019-03-26T11:20:39.838Z,61.90
2019-03-26T11:23:11.075Z,61.30
2019-03-26T11:25:42.250Z,60.50
2019-03-26T11:28:13.455Z,57.50
2019-03-26T11:30:44.702Z,57.80
2019-03-26T11:33:15.945Z,57.00
2019-03-26T11:35:47.146Z,57.40
2019-03-26T11:38:18.746Z,55.80
2019-03-26T11:40:50.031Z,57.40
2019-03-26T11:43:21.225Z,55.50
2019-03-26T11:45:52.545Z,55.80
2019-03-26T11:48:23.828Z,59.70
2019-03-26T11:50:55.094Z,59.40
2019-03-26T11:53:26.241Z,57.10
2019-03-26T11:55:57.540Z,57.60
2019-03-26T11:58:30.919Z,54.50
2019-03-26T12:01:01.809Z,55.90
2019-03-26T12:03:33.107Z,52.60
2019-03-26T12:06:04.315Z,52.60
2019-03-26T12:08:35.643Z,48.50
2019-03-26T12:11:06.966Z,48.80
2019-03-26T12:13:38.244Z,48.90
2019-03-26T12:16:09.528Z,49.70
2019-03-26T12:18:40.873Z,49.50
2019-03-26T12:21:12.086Z,47.40
2019-03-26T12:23:43.347Z,48.20
2019-03-26T12:26:14.695Z,50.20
2019-03-26T12:28:45.951Z,51.30
2019-03-26T12:31:17.167Z,53.10
2019-03-26T12:33:48.384Z,55.60
2019-03-26T12:36:19.959Z,58.50
2019-03-26T12:38:51.316Z,59.60
2019-03-26T12:41:22.579Z,59.50
2019-03-26T12:43:53.833Z,59.30
2019-03-26T12:46:25.106Z,61.30
2019-03-26T12:48:56.362Z,60.20
2019-03-26T12:51:27.718Z,58.50
2019-03-26T12:53:58.923Z,59.50
2019-03-26T12:56:30.160Z,59.40
2019-03-26T12:59:01.486Z,58.10
2019-03-26T13:01:32.783Z,57.20
2019-03-26T13:04:12.642Z,55.50
2019-03-26T13:06:37.105Z,56.20
2019-03-26T13:09:10.245Z,56.80
2019-03-26T13:11:41.828Z,55.70
2019-03-26T13:14:13.056Z,56.40
2019-03-26T13:16:44.401Z,58.00
2019-03-26T13:19:15.718Z,56.60
2019-03-26T13:21:46.956Z,57.20
2019-03-26T13:24:18.171Z,59.40
2019-03-26T13:26:50.395Z,60.00
2019-03-26T13:29:21.615Z,60.60
2019-03-26T13:31:52.969Z,60.40
2019-03-26T13:34:24.266Z,61.10
2019-03-26T13:36:55.583Z,61.30
2019-03-26T13:39:26.980Z,60.10
2019-03-26T13:41:58.217Z,59.00
2019-03-26T13:44:29.432Z,56.90
2019-03-26T13:47:00.807Z,55.90
2019-03-26T13:49:32.053Z,55.40
2019-03-26T13:52:03.280Z,54.40
2019-03-26T13:54:34.608Z,56.20
2019-03-26T13:57:05.906Z,55.70
2019-03-26T13:59:40.810Z,56.70
2019-03-26T14:02:12.016Z,57.40
2019-03-26T14:04:43.893Z,56.20
2019-03-26T14:07:15.200Z,57.30
2019-03-26T14:09:46.436Z,57.70
2019-03-26T14:12:17.691Z,57.50
2019-03-26T14:14:48.998Z,58.00
2019-03-26T14:17:20.320Z,56.20
2019-03-26T14:19:51.550Z,55.20
2019-03-26T14:22:22.852Z,54.60
2019-03-26T14:24:54.045Z,54.80
2019-03-26T14:27:25.309Z,55.70
2019-03-26T14:29:56.557Z,57.60
2019-03-26T14:32:27.928Z,58.10
2019-03-26T14:34:59.149Z,60.30
2019-03-26T14:37:30.418Z,60.20
2019-03-26T14:40:01.669Z,62.30
2019-03-26T14:42:32.867Z,62.10
2019-03-26T14:45:04.524Z,62.80
2019-03-26T14:47:35.773Z,62.50
2019-03-26T14:50:07.941Z,61.80
2019-03-26T14:52:39.163Z,60.40
2019-03-26T14:55:10.469Z,59.40
2019-03-26T14:57:41.692Z,54.40
2019-03-26T15:00:13.293Z,51.70
2019-03-26T15:02:44.628Z,52.00
2019-03-26T15:05:15.995Z,51.90
2019-03-26T15:07:47.203Z,52.40
2019-03-26T15:10:18.798Z,55.10
2019-03-26T15:12:50.013Z,57.00
2019-03-26T15:15:21.360Z,56.80
2019-03-26T15:17:52.587Z,58.70
2019-03-26T15:20:23.842Z,59.90
2019-03-26T15:22:57.948Z,59.30
2019-03-26T15:25:28.005Z,59.60
2019-03-26T15:27:59.253Z,61.40
2019-03-26T15:30:30.578Z,62.20
2019-03-26T15:33:01.881Z,63.30
2019-03-26T15:35:33.121Z,62.20
2019-03-26T15:38:04.377Z,62.70
2019-03-26T15:40:35.873Z,64.70
2019-03-26T15:43:07.053Z,62.70
2019-03-26T15:45:38.297Z,64.40
2019-03-26T15:48:09.583Z,64.40
2019-03-26T15:50:45.629Z,63.50
2019-03-26T15:53:16.857Z,62.60
2019-03-26T15:55:48.132Z,63.60
2019-03-26T15:58:19.371Z,64.10
2019-03-26T16:00:50.637Z,63.80
2019-03-26T16:03:22.535Z,62.90
2019-03-26T16:05:53.938Z,63.50
2019-03-26T16:08:25.186Z,63.90
2019-03-26T16:10:56.503Z,64.20
2019-03-26T16:13:27.926Z,63.50
2019-03-26T16:15:59.154Z,64.30
2019-03-26T16:18:30.390Z,65.00
2019-03-26T16:21:01.717Z,65.10
2019-03-26T16:23:33.048Z,64.30
2019-03-26T16:26:04.559Z,64.50
2019-03-26T16:28:35.765Z,65.30
2019-03-26T16:31:06.990Z,66.40
2019-03-26T16:33:38.250Z,66.50
2019-03-26T16:36:09.534Z,66.60
2019-03-26T16:38:40.799Z,67.30
2019-03-26T16:41:12.228Z,68.00
2019-03-26T16:43:43.463Z,66.90
2019-03-26T16:46:14.831Z,68.00
2019-03-26T16:48:46.137Z,68.30
2019-03-26T16:51:17.372Z,68.20
2019-03-26T16:53:48.568Z,67.50
2019-03-26T16:56:19.834Z,68.10
2019-03-26T16:58:51.119Z,68.50
2019-03-26T17:01:22.367Z,68.20
2019-03-26T17:03:53.642Z,68.90
2019-03-26T17:06:24.938Z,68.90
2019-03-26T17:08:57.335Z,69.50
2019-03-26T17:11:28.694Z,69.70
2019-03-26T17:14:00.038Z,70.20
2019-03-26T17:16:31.315Z,70.80
2019-03-26T17:19:02.590Z,71.10
2019-03-26T17:21:34.204Z,71.60
2019-03-26T17:24:05.493Z,72.30
2019-03-26T17:26:36.835Z,72.30
2019-03-26T17:29:08.079Z,73.10
2019-03-26T17:31:39.312Z,73.80
2019-03-26T17:34:10.588Z,74.40
2019-03-26T17:36:41.874Z,75.60
2019-03-26T17:39:13.191Z,76.10
2019-03-26T17:41:44.438Z,76.60
2019-03-26T17:44:15.743Z,77.30
2019-03-26T17:46:47.100Z,78.10
2019-03-26T17:49:18.316Z,78.50
2019-03-26T17:51:49.975Z,78.50
2019-03-26T17:54:21.281Z,79.60
2019-03-26T17:56:52.576Z,79.70
2019-03-26T17:59:23.895Z,80.40
2019-03-26T18:01:55.107Z,81.00
2019-03-26T18:04:26.839Z,81.60
2019-03-26T18:06:58.062Z,82.50
2019-03-26T18:09:29.337Z,82.50
2019-03-26T18:12:00.582Z,82.50
2019-03-26T18:14:31.833Z,83.90
2019-03-26T18:17:03.225Z,83.30
2019-03-26T18:19:34.465Z,83.40
2019-03-26T18:22:05.701Z,83.60
2019-03-26T18:24:37.014Z,83.60
2019-03-26T18:27:08.320Z,83.80
2019-03-26T18:29:39.636Z,83.60
2019-03-26T18:32:10.883Z,83.80
2019-03-26T18:34:42.170Z,84.30
2019-03-26T18:37:13.465Z,84.80
2019-03-26T18:39:44.816Z,85.10
2019-03-26T18:42:16.038Z,85.20
2019-03-26T18:44:47.334Z,86.00
2019-03-26T18:47:18.601Z,85.10
2019-03-26T18:49:49.947Z,85.70
2019-03-26T18:52:21.133Z,85.80
2019-03-26T18:54:52.430Z,86.00
2019-03-26T18:57:23.717Z,86.70
2019-03-26T18:59:55.032Z,86.90
2019-03-26T19:02:26.349Z,87.20
2019-03-26T19:04:57.695Z,87.70
2019-03-26T19:07:28.911Z,88.10
2019-03-26T19:10:00.359Z,87.60
2019-03-26T19:12:31.824Z,87.80
2019-03-26T19:15:03.211Z,88.20
2019-03-26T19:17:34.499Z,88.60
2019-03-26T19:20:06.317Z,88.70
2019-03-26T19:22:37.889Z,89.10
2019-03-26T19:25:09.281Z,89.60
2019-03-26T19:27:40.612Z,89.50
2019-03-26T19:30:12.330Z,89.40
2019-03-26T19:32:43.619Z,90.00
2019-03-26T19:35:14.942Z,90.20
2019-03-26T19:37:46.229Z,90.30
2019-03-26T19:40:17.716Z,90.30
2019-03-26T19:42:48.970Z,90.50
2019-03-26T19:45:20.230Z,90.70
2019-03-26T19:47:51.573Z,91.10
2019-03-26T19:50:22.859Z,90.90
2019-03-26T19:52:54.147Z,90.90
2019-03-26T19:55:25.452Z,91.10
2019-03-26T19:57:56.788Z,91.60
2019-03-26T20:00:28.185Z,91.30
2019-03-26T20:02:59.585Z,91.50
2019-03-26T20:05:30.885Z,91.50
2019-03-26T20:08:02.104Z,91.50
2019-03-26T20:10:33.382Z,91.70
2019-03-26T20:13:04.731Z,91.90
2019-03-26T20:15:36.123Z,91.40
2019-03-26T20:18:07.379Z,91.40
2019-03-26T20:20:38.656Z,91.50
2019-03-26T20:23:09.932Z,91.60
2019-03-26T20:25:41.430Z,91.60
2019-03-26T20:28:12.698Z,92.10
2019-03-26T20:30:43.971Z,92.30
2019-03-26T20:33:15.178Z,92.20
2019-03-26T20:35:46.443Z,92.80
2019-03-26T20:38:17.670Z,93.50
2019-03-26T20:40:48.981Z,93.80
2019-03-26T20:43:20.163Z,93.80
2019-03-26T20:45:51.429Z,93.20
2019-03-26T20:48:22.706Z,93.60
2019-03-26T20:50:57.011Z,94.00
2019-03-26T20:53:26.869Z,94.70
2019-03-26T20:55:58.605Z,95.00
2019-03-26T20:58:30.502Z,95.20
2019-03-26T21:01:01.749Z,93.90
2019-03-26T21:03:33.085Z,93.70
2019-03-26T21:06:04.461Z,93.60
2019-03-26T21:08:35.717Z,93.90
2019-03-26T21:11:07.123Z,94.20
2019-03-26T21:13:50.328Z,93.50
2019-03-26T21:16:11.307Z,93.00
2019-03-26T21:18:42.514Z,93.50
2019-03-26T21:21:13.760Z,93.70
2019-03-26T21:23:44.986Z,93.90
2019-03-26T21:26:16.333Z,94.10
2019-03-26T21:28:47.619Z,95.40
2019-03-26T21:31:18.905Z,96.00
2019-03-26T21:33:50.104Z,96.10
2019-03-26T21:36:21.320Z,97.40
2019-03-26T21:38:52.635Z,98.30
2019-03-26T21:41:24.001Z,98.10
2019-03-26T21:44:04.184Z,98.10
2019-03-26T21:46:28.097Z,98.40
2019-03-26T21:48:59.331Z,98.30
2019-03-26T21:51:30.597Z,98.60
2019-03-26T21:54:01.834Z,98.00
2019-03-26T21:56:33.079Z,98.10
2019-03-26T21:59:04.316Z,98.30
2019-03-26T22:01:35.553Z,98.80
2019-03-26T22:04:06.719Z,98.40
2019-03-26T22:06:38.065Z,99.10
2019-03-26T22:09:09.392Z,99.00
2019-03-26T22:11:49.881Z,98.40
2019-03-26T22:14:18.290Z,98.60
2019-03-26T22:16:46.464Z,99.50
2019-03-26T22:19:27.949Z,99.80
2019-03-26T22:21:50.424Z,99.50
2019-03-26T22:24:21.612Z,99.10
2019-03-26T22:26:52.897Z,99.80
2019-03-26T22:29:24.043Z,99.90
2019-03-26T22:31:55.250Z,99.90
2019-03-26T22:34:26.416Z,99.90
2019-03-26T22:36:57.683Z,99.90
2019-03-26T22:39:28.982Z,99.90
2019-03-26T22:42:00.567Z,99.90
2019-03-26T22:44:32.003Z,99.90
2019-03-26T22:47:03.238Z,99.90
2019-03-26T22:49:34.535Z,99.90
2019-03-26T22:52:05.701Z,99.90
2019-03-26T22:54:36.899Z,99.90
2019-03-26T22:57:08.104Z,99.90
2019-03-26T22:59:39.322Z,99.90
2019-03-26T23:02:10.508Z,99.90
2019-03-26T23:04:41.724Z,99.90
2019-03-26T23:07:12.870Z,99.90
2019-03-26T23:09:44.080Z,99.90
2019-03-26T23:12:15.242Z,99.90
2019-03-26T23:14:46.470Z,99.90
2019-03-26T23:17:17.636Z,99.90
2019-03-26T23:19:48.812Z,99.90
2019-03-26T23:22:20.068Z,99.90
2019-03-26T23:24:51.365Z,99.90
2019-03-26T23:27:22.591Z,99.90
2019-03-26T23:29:53.907Z,99.90
2019-03-26T23:32:25.157Z,99.90
2019-03-26T23:34:56.400Z,99.90
2019-03-26T23:37:27.667Z,99.90
2019-03-26T23:39:58.894Z,99.90
2019-03-26T23:42:30.080Z,99.90
2019-03-26T23:45:01.327Z,99.90
2019-03-26T23:47:32.572Z,99.90
2019-03-26T23:50:03.931Z,99.90
2019-03-26T23:52:35.085Z,99.90
2019-03-26T23:55:07.372Z,99.90
2019-03-26T23:57:38.530Z,99.90
